createdAt,value
2018-06-04T00:01:27.351Z,21
2018-06-04T00:11:26.064Z,21
2018-06-04T00:21:26.289Z,21
2018-06-04T00:31:26.309Z,21
2018-06-04T00:41:26.707Z,21
2018-06-04T00:51:29.238Z,20
2018-06-04T01:01:27.908Z,21
2018-06-04T01:11:27.826Z,21
2018-06-04T01:21:27.712Z,20
2018-06-04T01:31:29.996Z,20
2018-06-04T01:41:27.930Z,21
2018-06-04T01:51:26.999Z,20
2018-06-04T02:01:27.871Z,20
2018-06-04T02:11:28.834Z,20
2018-06-04T02:21:27.122Z,20
2018-06-04T02:31:27.133Z,20
2018-06-04T02:41:27.278Z,20
2018-06-04T02:51:26.626Z,20
2018-06-04T03:01:27.744Z,20
2018-06-04T03:11:26.734Z,20
2018-06-04T03:21:28.637Z,20
2018-06-04T03:31:27.541Z,20
2018-06-04T03:41:26.639Z,20
2018-06-04T03:51:26.377Z,20
2018-06-04T04:01:26.454Z,20
2018-06-04T04:11:30.333Z,20
2018-06-04T04:21:27.295Z,20
2018-06-04T04:31:27.737Z,20
2018-06-04T04:41:27.549Z,20
2018-06-04T04:51:26.510Z,20
2018-06-04T05:01:28.719Z,20
2018-06-04T05:11:27.417Z,20
2018-06-04T05:21:27.703Z,20
2018-06-04T05:33:55.022Z,20
2018-06-04T05:41:27.032Z,20
2018-06-04T05:51:28.088Z,21
2018-06-04T06:01:27.923Z,21
2018-06-04T06:11:26.987Z,21
2018-06-04T06:21:27.858Z,21
2018-06-04T06:31:28.252Z,21
2018-06-04T06:41:27.323Z,21
2018-06-04T06:51:28.247Z,21
2018-06-04T07:01:27.526Z,21
2018-06-04T07:11:26.838Z,22
2018-06-04T07:21:27.272Z,22
2018-06-04T07:31:26.067Z,22
2018-06-04T07:41:26.963Z,22
2018-06-04T07:51:27.694Z,22
2018-06-04T08:01:27.683Z,23
2018-06-04T08:11:26.984Z,22
2018-06-04T08:21:27.258Z,23
2018-06-04T08:31:27.100Z,23
2018-06-04T08:41:27.250Z,23
2018-06-04T08:51:26.995Z,23
2018-06-04T09:01:27.664Z,24
2018-06-04T09:11:26.453Z,24
2018-06-04T09:21:26.498Z,24
2018-06-04T09:31:26.824Z,24
2018-06-04T09:41:26.731Z,24
2018-06-04T09:51:26.453Z,24
2018-06-04T10:01:26.873Z,24
2018-06-04T10:11:27.432Z,24
2018-06-04T10:21:27.893Z,25
2018-06-04T10:31:28.988Z,25
2018-06-04T10:41:27.186Z,24
2018-06-04T10:51:28.288Z,25
2018-06-04T11:01:26.608Z,25
2018-06-04T11:11:26.482Z,25
2018-06-04T11:21:28.448Z,24
2018-06-04T11:31:26.434Z,25
2018-06-04T11:41:26.799Z,25
2018-06-04T11:51:26.765Z,25
2018-06-04T12:01:26.667Z,25
2018-06-04T12:11:27.432Z,26
2018-06-04T12:21:27.072Z,26
2018-06-04T12:31:28.418Z,26
2018-06-04T12:41:26.511Z,26
2018-06-04T12:51:26.244Z,26
2018-06-04T13:01:27.758Z,26
2018-06-04T13:11:26.809Z,26
2018-06-04T13:21:27.400Z,26
2018-06-04T13:31:26.486Z,26
2018-06-04T13:41:27.102Z,25
2018-06-04T13:51:26.868Z,26
2018-06-04T14:01:27.317Z,26
2018-06-04T14:11:26.768Z,26
2018-06-04T14:21:26.786Z,26
2018-06-04T14:31:29.140Z,26
2018-06-04T14:41:27.090Z,26
2018-06-04T14:51:26.373Z,25
2018-06-04T15:01:26.678Z,26
2018-06-04T15:11:27.029Z,26
2018-06-04T15:21:27.077Z,26
2018-06-04T15:31:27.267Z,26
2018-06-04T15:41:26.300Z,26
2018-06-04T15:51:27.589Z,26
2018-06-04T16:01:26.465Z,27
2018-06-04T16:11:26.980Z,27
2018-06-04T16:21:27.900Z,28
2018-06-04T16:31:26.929Z,28
2018-06-04T16:41:27.924Z,29
2018-06-04T16:51:26.878Z,29
2018-06-04T17:01:28.154Z,30
2018-06-04T17:11:30.301Z,30
2018-06-04T17:21:27.259Z,30
2018-06-04T17:31:26.325Z,30
2018-06-04T17:41:26.609Z,29
2018-06-04T17:51:26.624Z,29
2018-06-04T18:01:27.042Z,28
2018-06-04T18:11:29.669Z,27
2018-06-04T18:21:28.619Z,26
2018-06-04T18:31:27.644Z,26
2018-06-04T18:41:26.634Z,26
2018-06-04T18:51:27.210Z,25
2018-06-04T19:01:27.525Z,25
2018-06-04T19:11:26.650Z,25
2018-06-04T19:21:27.475Z,25
2018-06-04T19:31:26.776Z,25
2018-06-04T19:41:30.386Z,25
2018-06-04T19:51:26.302Z,25
2018-06-04T20:01:26.938Z,24
2018-06-04T20:11:28.913Z,24
2018-06-04T20:21:28.490Z,24
2018-06-04T20:31:26.320Z,24
2018-06-04T20:41:27.439Z,23
2018-06-04T20:51:26.363Z,24
2018-06-04T21:01:26.500Z,24
2018-06-04T21:11:26.665Z,23
2018-06-04T21:21:26.733Z,23
2018-06-04T21:31:30.229Z,23
2018-06-04T21:41:27.663Z,23
2018-06-04T21:51:28.884Z,23
2018-06-04T22:01:27.636Z,23
2018-06-04T22:11:29.434Z,22
2018-06-04T22:21:26.555Z,23
2018-06-04T22:31:27.532Z,23
2018-06-04T22:41:26.400Z,22
2018-06-04T22:51:26.938Z,22
2018-06-04T23:01:26.836Z,22
2018-06-04T23:11:27.331Z,22
2018-06-04T23:21:26.974Z,22
2018-06-04T23:31:27.824Z,22
2018-06-04T23:41:27.283Z,22
2018-06-04T23:51:28.583Z,22
